Terminal Aerodrome Forecast
Issued by NWS Grand Forks, ND

Home | Current Version | Previous Version | Graphics & Text | Print | Product List | Glossary On
Versions: 1 2 3 4 5 6 7 8 9 10 11 12 13 14 15 16
000
FTUS43 KFGF 140520
TAFFAR
TAF
KFAR 140520Z 1406/1506 13005KT P6SM SCT250
     FM141000 11005KT P6SM BKN100
     FM141700 06007KT P6SM -RA BKN070
     FM142200 36009KT P6SM OVC040
     FM150500 33008KT P6SM SCT120=

USA.gov is the U.S. government's official web portal to all federal, state and local government web resources and services.